sensor_id;sensor_type;location;lat;lon;timestamp;P1;durP1;ratioP1;P2;durP2;ratioP2
59169;SDS011;52474;52.236;5.114;2023-07-31T00:01:49;15.63;;;3.65;;
59169;SDS011;52474;52.236;5.114;2023-07-31T00:04:14;15.25;;;4.15;;
59169;SDS011;52474;52.236;5.114;2023-07-31T00:06:40;11.00;;;3.78;;
59169;SDS011;52474;52.236;5.114;2023-07-31T00:09:06;13.30;;;4.38;;
59169;SDS011;52474;52.236;5.114;2023-07-31T00:11:31;18.00;;;4.78;;
59169;SDS011;52474;52.236;5.114;2023-07-31T00:13:57;17.38;;;4.47;;
59169;SDS011;52474;52.236;5.114;2023-07-31T00:16:23;16.42;;;4.82;;
59169;SDS011;52474;52.236;5.114;2023-07-31T00:18:48;19.35;;;5.05;;
59169;SDS011;52474;52.236;5.114;2023-07-31T00:21:14;14.40;;;4.53;;
59169;SDS011;52474;52.236;5.114;2023-07-31T00:23:40;18.02;;;4.78;;
59169;SDS011;52474;52.236;5.114;2023-07-31T00:26:05;13.93;;;4.32;;
59169;SDS011;52474;52.236;5.114;2023-07-31T00:28:31;15.68;;;4.45;;
59169;SDS011;52474;52.236;5.114;2023-07-31T00:30:56;18.42;;;5.32;;
59169;SDS011;52474;52.236;5.114;2023-07-31T00:33:25;19.83;;;5.32;;
59169;SDS011;52474;52.236;5.114;2023-07-31T00:35:50;19.08;;;6.40;;
59169;SDS011;52474;52.236;5.114;2023-07-31T00:38:17;29.25;;;8.35;;
59169;SDS011;52474;52.236;5.114;2023-07-31T00:40:43;35.65;;;9.80;;
59169;SDS011;52474;52.236;5.114;2023-07-31T00:43:09;50.42;;;10.10;;
59169;SDS011;52474;52.236;5.114;2023-07-31T00:45:35;46.65;;;10.32;;
59169;SDS011;52474;52.236;5.114;2023-07-31T00:48:00;45.88;;;10.38;;
59169;SDS011;52474;52.236;5.114;2023-07-31T00:50:26;27.83;;;8.63;;
59169;SDS011;52474;52.236;5.114;2023-07-31T00:52:53;39.60;;;9.50;;
59169;SDS011;52474;52.236;5.114;2023-07-31T00:55:19;35.47;;;7.65;;
59169;SDS011;52474;52.236;5.114;2023-07-31T00:57:47;22.30;;;6.55;;
59169;SDS011;52474;52.236;5.114;2023-07-31T01:00:13;23.95;;;5.63;;
59169;SDS011;52474;52.236;5.114;2023-07-31T01:02:39;22.65;;;5.78;;
59169;SDS011;52474;52.236;5.114;2023-07-31T01:05:04;14.40;;;4.90;;
59169;SDS011;52474;52.236;5.114;2023-07-31T01:08:05;20.88;;;5.28;;
59169;SDS011;52474;52.236;5.114;2023-07-31T01:10:55;16.77;;;4.50;;
59169;SDS011;52474;52.236;5.114;2023-07-31T01:13:24;14.38;;;5.13;;
59169;SDS011;52474;52.236;5.114;2023-07-31T01:15:50;16.42;;;4.25;;
59169;SDS011;52474;52.236;5.114;2023-07-31T01:18:15;13.77;;;4.72;;
59169;SDS011;52474;52.236;5.114;2023-07-31T01:20:41;19.45;;;4.40;;
59169;SDS011;52474;52.236;5.114;2023-07-31T01:23:14;16.08;;;4.45;;
59169;SDS011;52474;52.236;5.114;2023-07-31T01:31:24;15.65;;;4.80;;
59169;SDS011;52474;52.236;5.114;2023-07-31T01:33:53;22.13;;;4.90;;
59169;SDS011;52474;52.236;5.114;2023-07-31T01:36:20;23.75;;;5.88;;
59169;SDS011;52474;52.236;5.114;2023-07-31T01:38:45;19.35;;;5.55;;
59169;SDS011;52474;52.236;5.114;2023-07-31T01:41:11;19.83;;;5.38;;
59169;SDS011;52474;52.236;5.114;2023-07-31T01:43:37;21.38;;;5.38;;
59169;SDS011;52474;52.236;5.114;2023-07-31T01:46:04;21.17;;;5.65;;
59169;SDS011;52474;52.236;5.114;2023-07-31T01:48:29;32.88;;;7.60;;
59169;SDS011;52474;52.236;5.114;2023-07-31T01:51:00;25.13;;;6.78;;
59169;SDS011;52474;52.236;5.114;2023-07-31T01:53:27;39.22;;;8.93;;
59169;SDS011;52474;52.236;5.114;2023-07-31T01:55:52;31.88;;;8.93;;
59169;SDS011;52474;52.236;5.114;2023-07-31T01:58:18;35.72;;;9.00;;
59169;SDS011;52474;52.236;5.114;2023-07-31T02:00:44;39.45;;;9.45;;
59169;SDS011;52474;52.236;5.114;2023-07-31T02:03:09;37.03;;;8.80;;
59169;SDS011;52474;52.236;5.114;2023-07-31T02:05:35;40.83;;;10.38;;
59169;SDS011;52474;52.236;5.114;2023-07-31T02:08:01;54.38;;;10.20;;
59169;SDS011;52474;52.236;5.114;2023-07-31T02:10:26;38.53;;;10.90;;
59169;SDS011;52474;52.236;5.114;2023-07-31T02:12:52;43.40;;;9.82;;
59169;SDS011;52474;52.236;5.114;2023-07-31T02:15:18;36.97;;;9.25;;
59169;SDS011;52474;52.236;5.114;2023-07-31T02:17:43;41.38;;;9.75;;
59169;SDS011;52474;52.236;5.114;2023-07-31T02:20:09;39.83;;;9.93;;
59169;SDS011;52474;52.236;5.114;2023-07-31T02:22:35;48.03;;;11.13;;
59169;SDS011;52474;52.236;5.114;2023-07-31T02:25:01;34.55;;;9.32;;
59169;SDS011;52474;52.236;5.114;2023-07-31T02:27:27;48.63;;;10.38;;
59169;SDS011;52474;52.236;5.114;2023-07-31T02:29:53;40.20;;;10.05;;
59169;SDS011;52474;52.236;5.114;2023-07-31T02:32:20;43.97;;;10.10;;
59169;SDS011;52474;52.236;5.114;2023-07-31T02:34:45;41.08;;;10.43;;
59169;SDS011;52474;52.236;5.114;2023-07-31T02:37:11;48.58;;;10.52;;
59169;SDS011;52474;52.236;5.114;2023-07-31T02:39:36;43.22;;;10.15;;
59169;SDS011;52474;52.236;5.114;2023-07-31T02:42:02;50.42;;;9.80;;
59169;SDS011;52474;52.236;5.114;2023-07-31T02:44:28;41.60;;;9.15;;
59169;SDS011;52474;52.236;5.114;2023-07-31T02:46:54;43.00;;;10.15;;
59169;SDS011;52474;52.236;5.114;2023-07-31T02:49:19;50.75;;;10.27;;
59169;SDS011;52474;52.236;5.114;2023-07-31T02:51:45;52.90;;;10.15;;
59169;SDS011;52474;52.236;5.114;2023-07-31T02:54:11;41.40;;;9.32;;
59169;SDS011;52474;52.236;5.114;2023-07-31T02:56:37;56.60;;;10.23;;
59169;SDS011;52474;52.236;5.114;2023-07-31T02:59:02;43.08;;;9.75;;
59169;SDS011;52474;52.236;5.114;2023-07-31T03:01:28;43.35;;;9.45;;
59169;SDS011;52474;52.236;5.114;2023-07-31T03:03:53;46.90;;;9.52;;
59169;SDS011;52474;52.236;5.114;2023-07-31T03:06:19;45.47;;;10.23;;
59169;SDS011;52474;52.236;5.114;2023-07-31T03:08:45;40.65;;;9.80;;
59169;SDS011;52474;52.236;5.114;2023-07-31T03:11:10;35.85;;;9.07;;
59169;SDS011;52474;52.236;5.114;2023-07-31T03:13:36;39.20;;;9.43;;
59169;SDS011;52474;52.236;5.114;2023-07-31T03:16:02;43.13;;;9.70;;
59169;SDS011;52474;52.236;5.114;2023-07-31T03:18:27;47.90;;;9.88;;
59169;SDS011;52474;52.236;5.114;2023-07-31T03:20:53;48.53;;;10.35;;
59169;SDS011;52474;52.236;5.114;2023-07-31T03:23:19;44.70;;;9.80;;
59169;SDS011;52474;52.236;5.114;2023-07-31T03:26:06;43.45;;;9.98;;
59169;SDS011;52474;52.236;5.114;2023-07-31T03:28:32;50.03;;;10.63;;
59169;SDS011;52474;52.236;5.114;2023-07-31T03:30:58;50.40;;;11.50;;
59169;SDS011;52474;52.236;5.114;2023-07-31T03:33:23;46.08;;;10.45;;
59169;SDS011;52474;52.236;5.114;2023-07-31T03:35:50;37.50;;;10.05;;
59169;SDS011;52474;52.236;5.114;2023-07-31T03:38:15;43.40;;;9.80;;
59169;SDS011;52474;52.236;5.114;2023-07-31T03:40:41;36.63;;;9.70;;
59169;SDS011;52474;52.236;5.114;2023-07-31T03:43:06;38.78;;;9.05;;
59169;SDS011;52474;52.236;5.114;2023-07-31T03:45:32;43.42;;;10.43;;
59169;SDS011;52474;52.236;5.114;2023-07-31T03:47:58;39.35;;;9.13;;
59169;SDS011;52474;52.236;5.114;2023-07-31T03:50:25;31.00;;;9.10;;
59169;SDS011;52474;52.236;5.114;2023-07-31T03:52:50;41.10;;;9.80;;
59169;SDS011;52474;52.236;5.114;2023-07-31T03:55:17;39.35;;;8.93;;
59169;SDS011;52474;52.236;5.114;2023-07-31T03:57:43;32.88;;;8.82;;
59169;SDS011;52474;52.236;5.114;2023-07-31T04:00:09;31.55;;;8.63;;
59169;SDS011;52474;52.236;5.114;2023-07-31T04:02:38;38.72;;;9.23;;
59169;SDS011;52474;52.236;5.114;2023-07-31T04:05:04;33.92;;;9.77;;
59169;SDS011;52474;52.236;5.114;2023-07-31T04:07:29;34.83;;;8.50;;
59169;SDS011;52474;52.236;5.114;2023-07-31T04:09:56;41.33;;;10.13;;
59169;SDS011;52474;52.236;5.114;2023-07-31T04:12:22;35.22;;;9.40;;
59169;SDS011;52474;52.236;5.114;2023-07-31T04:14:48;43.47;;;10.50;;
59169;SDS011;52474;52.236;5.114;2023-07-31T04:17:13;37.47;;;8.70;;
59169;SDS011;52474;52.236;5.114;2023-07-31T04:19:39;38.60;;;9.70;;
59169;SDS011;52474;52.236;5.114;2023-07-31T04:22:04;40.45;;;9.93;;
59169;SDS011;52474;52.236;5.114;2023-07-31T04:24:30;36.00;;;9.15;;
59169;SDS011;52474;52.236;5.114;2023-07-31T04:26:56;29.67;;;8.07;;
59169;SDS011;52474;52.236;5.114;2023-07-31T04:29:21;29.75;;;8.65;;
59169;SDS011;52474;52.236;5.114;2023-07-31T04:31:47;34.33;;;8.73;;
59169;SDS011;52474;52.236;5.114;2023-07-31T04:34:13;40.03;;;9.40;;
59169;SDS011;52474;52.236;5.114;2023-07-31T04:36:39;34.30;;;9.32;;
59169;SDS011;52474;52.236;5.114;2023-07-31T04:39:05;33.20;;;9.18;;
59169;SDS011;52474;52.236;5.114;2023-07-31T04:41:31;26.63;;;8.57;;
59169;SDS011;52474;52.236;5.114;2023-07-31T04:43:56;36.50;;;9.73;;
59169;SDS011;52474;52.236;5.114;2023-07-31T04:46:22;39.47;;;9.40;;
59169;SDS011;52474;52.236;5.114;2023-07-31T04:48:47;33.70;;;9.80;;
59169;SDS011;52474;52.236;5.114;2023-07-31T04:51:13;31.55;;;9.73;;
59169;SDS011;52474;52.236;5.114;2023-07-31T04:53:39;31.25;;;9.45;;
59169;SDS011;52474;52.236;5.114;2023-07-31T04:56:04;34.33;;;8.93;;
59169;SDS011;52474;52.236;5.114;2023-07-31T04:58:30;26.90;;;8.38;;
59169;SDS011;52474;52.236;5.114;2023-07-31T05:00:55;30.70;;;9.32;;
59169;SDS011;52474;52.236;5.114;2023-07-31T05:03:21;33.95;;;8.75;;
59169;SDS011;52474;52.236;5.114;2023-07-31T05:05:47;25.73;;;8.45;;
59169;SDS011;52474;52.236;5.114;2023-07-31T05:08:12;21.65;;;7.95;;
59169;SDS011;52474;52.236;5.114;2023-07-31T05:10:38;26.88;;;7.53;;
59169;SDS011;52474;52.236;5.114;2023-07-31T05:13:04;23.70;;;7.75;;
59169;SDS011;52474;52.236;5.114;2023-07-31T05:15:29;25.35;;;9.32;;
59169;SDS011;52474;52.236;5.114;2023-07-31T05:17:55;27.00;;;7.93;;
59169;SDS011;52474;52.236;5.114;2023-07-31T05:20:21;25.73;;;8.70;;
59169;SDS011;52474;52.236;5.114;2023-07-31T05:22:46;22.05;;;7.63;;
59169;SDS011;52474;52.236;5.114;2023-07-31T05:25:12;24.10;;;7.13;;
59169;SDS011;52474;52.236;5.114;2023-07-31T05:27:38;26.63;;;7.85;;
59169;SDS011;52474;52.236;5.114;2023-07-31T05:30:04;27.58;;;7.45;;
59169;SDS011;52474;52.236;5.114;2023-07-31T05:32:30;20.77;;;7.15;;
59169;SDS011;52474;52.236;5.114;2023-07-31T05:34:56;16.17;;;6.97;;
59169;SDS011;52474;52.236;5.114;2023-07-31T05:37:21;18.48;;;7.07;;
59169;SDS011;52474;52.236;5.114;2023-07-31T05:39:47;14.13;;;6.03;;
59169;SDS011;52474;52.236;5.114;2023-07-31T05:42:13;15.90;;;6.35;;
59169;SDS011;52474;52.236;5.114;2023-07-31T05:44:39;17.15;;;6.55;;
59169;SDS011;52474;52.236;5.114;2023-07-31T05:47:04;12.52;;;5.13;;
59169;SDS011;52474;52.236;5.114;2023-07-31T05:49:30;13.60;;;5.95;;
59169;SDS011;52474;52.236;5.114;2023-07-31T05:51:56;14.45;;;6.43;;
59169;SDS011;52474;52.236;5.114;2023-07-31T05:54:21;15.63;;;6.78;;
59169;SDS011;52474;52.236;5.114;2023-07-31T05:56:47;15.60;;;5.95;;
59169;SDS011;52474;52.236;5.114;2023-07-31T05:59:13;17.48;;;5.95;;
59169;SDS011;52474;52.236;5.114;2023-07-31T06:01:38;21.55;;;6.93;;
59169;SDS011;52474;52.236;5.114;2023-07-31T06:04:04;26.15;;;6.85;;
59169;SDS011;52474;52.236;5.114;2023-07-31T06:06:30;25.13;;;6.60;;
59169;SDS011;52474;52.236;5.114;2023-07-31T06:08:56;18.48;;;6.20;;
59169;SDS011;52474;52.236;5.114;2023-07-31T06:11:21;16.98;;;5.45;;
59169;SDS011;52474;52.236;5.114;2023-07-31T06:13:47;20.13;;;5.90;;
59169;SDS011;52474;52.236;5.114;2023-07-31T06:16:14;20.67;;;5.70;;
59169;SDS011;52474;52.236;5.114;2023-07-31T06:18:40;16.65;;;5.43;;
59169;SDS011;52474;52.236;5.114;2023-07-31T06:21:07;16.35;;;5.45;;
59169;SDS011;52474;52.236;5.114;2023-07-31T06:23:33;13.30;;;5.15;;
59169;SDS011;52474;52.236;5.114;2023-07-31T06:25:58;20.85;;;5.20;;
59169;SDS011;52474;52.236;5.114;2023-07-31T06:28:28;16.67;;;5.75;;
59169;SDS011;52474;52.236;5.114;2023-07-31T06:30:54;13.10;;;4.72;;
59169;SDS011;52474;52.236;5.114;2023-07-31T06:33:20;11.43;;;4.60;;
59169;SDS011;52474;52.236;5.114;2023-07-31T06:35:46;16.45;;;5.22;;
59169;SDS011;52474;52.236;5.114;2023-07-31T06:38:11;12.63;;;5.00;;
59169;SDS011;52474;52.236;5.114;2023-07-31T06:40:37;9.35;;;4.50;;
59169;SDS011;52474;52.236;5.114;2023-07-31T06:43:03;10.88;;;4.93;;
59169;SDS011;52474;52.236;5.114;2023-07-31T06:45:36;14.80;;;4.72;;
59169;SDS011;52474;52.236;5.114;2023-07-31T06:48:02;12.65;;;4.35;;
59169;SDS011;52474;52.236;5.114;2023-07-31T06:50:29;11.02;;;4.75;;
59169;SDS011;52474;52.236;5.114;2023-07-31T06:52:55;8.98;;;4.03;;
59169;SDS011;52474;52.236;5.114;2023-07-31T06:55:21;13.98;;;5.10;;
59169;SDS011;52474;52.236;5.114;2023-07-31T06:57:48;13.32;;;4.88;;
59169;SDS011;52474;52.236;5.114;2023-07-31T07:00:15;12.07;;;4.95;;
59169;SDS011;52474;52.236;5.114;2023-07-31T07:02:41;8.55;;;4.15;;
59169;SDS011;52474;52.236;5.114;2023-07-31T07:05:07;11.57;;;4.47;;
59169;SDS011;52474;52.236;5.114;2023-07-31T07:07:33;12.32;;;4.25;;
59169;SDS011;52474;52.236;5.114;2023-07-31T07:10:00;10.70;;;4.35;;
59169;SDS011;52474;52.236;5.114;2023-07-31T07:12:26;9.68;;;4.72;;
59169;SDS011;52474;52.236;5.114;2023-07-31T07:14:54;12.25;;;4.45;;
59169;SDS011;52474;52.236;5.114;2023-07-31T07:17:20;13.52;;;5.25;;
59169;SDS011;52474;52.236;5.114;2023-07-31T07:19:45;10.43;;;4.85;;
59169;SDS011;52474;52.236;5.114;2023-07-31T07:22:13;8.38;;;4.20;;
59169;SDS011;52474;52.236;5.114;2023-07-31T07:24:39;10.90;;;4.57;;
59169;SDS011;52474;52.236;5.114;2023-07-31T07:27:04;12.75;;;4.70;;
59169;SDS011;52474;52.236;5.114;2023-07-31T07:29:30;8.73;;;4.60;;
59169;SDS011;52474;52.236;5.114;2023-07-31T07:31:56;8.07;;;4.15;;
59169;SDS011;52474;52.236;5.114;2023-07-31T07:34:22;8.82;;;3.55;;
59169;SDS011;52474;52.236;5.114;2023-07-31T07:36:49;11.98;;;4.03;;
59169;SDS011;52474;52.236;5.114;2023-07-31T07:39:15;6.68;;;3.15;;
59169;SDS011;52474;52.236;5.114;2023-07-31T07:41:40;6.00;;;2.90;;
59169;SDS011;52474;52.236;5.114;2023-07-31T07:44:07;5.97;;;2.88;;
59169;SDS011;52474;52.236;5.114;2023-07-31T07:46:33;5.32;;;2.60;;
59169;SDS011;52474;52.236;5.114;2023-07-31T07:48:59;5.97;;;2.30;;
59169;SDS011;52474;52.236;5.114;2023-07-31T07:51:24;4.55;;;2.70;;
59169;SDS011;52474;52.236;5.114;2023-07-31T07:53:50;7.28;;;2.65;;
59169;SDS011;52474;52.236;5.114;2023-07-31T07:56:16;5.10;;;2.40;;
59169;SDS011;52474;52.236;5.114;2023-07-31T07:58:41;5.40;;;2.60;;
59169;SDS011;52474;52.236;5.114;2023-07-31T08:01:07;7.47;;;2.60;;
59169;SDS011;52474;52.236;5.114;2023-07-31T08:03:32;5.28;;;2.50;;
59169;SDS011;52474;52.236;5.114;2023-07-31T08:05:58;7.63;;;2.33;;
59169;SDS011;52474;52.236;5.114;2023-07-31T08:08:24;3.80;;;2.28;;
59169;SDS011;52474;52.236;5.114;2023-07-31T08:10:50;5.15;;;2.58;;
59169;SDS011;52474;52.236;5.114;2023-07-31T08:13:16;3.90;;;2.35;;
59169;SDS011;52474;52.236;5.114;2023-07-31T08:15:41;5.38;;;2.90;;
59169;SDS011;52474;52.236;5.114;2023-07-31T08:18:08;4.53;;;2.47;;
59169;SDS011;52474;52.236;5.114;2023-07-31T08:20:34;3.53;;;2.83;;
59169;SDS011;52474;52.236;5.114;2023-07-31T08:23:00;4.75;;;3.10;;
59169;SDS011;52474;52.236;5.114;2023-07-31T08:25:25;7.68;;;2.75;;
59169;SDS011;52474;52.236;5.114;2023-07-31T08:27:51;4.43;;;2.70;;
59169;SDS011;52474;52.236;5.114;2023-07-31T08:30:18;5.43;;;3.38;;
59169;SDS011;52474;52.236;5.114;2023-07-31T08:32:44;5.68;;;3.30;;
59169;SDS011;52474;52.236;5.114;2023-07-31T08:35:10;4.45;;;3.13;;
59169;SDS011;52474;52.236;5.114;2023-07-31T08:37:37;4.47;;;2.65;;
59169;SDS011;52474;52.236;5.114;2023-07-31T08:40:03;6.32;;;3.28;;
59169;SDS011;52474;52.236;5.114;2023-07-31T08:42:30;3.88;;;2.78;;
59169;SDS011;52474;52.236;5.114;2023-07-31T08:44:56;4.25;;;2.92;;
59169;SDS011;52474;52.236;5.114;2023-07-31T08:47:22;5.30;;;2.45;;
59169;SDS011;52474;52.236;5.114;2023-07-31T08:49:49;3.55;;;2.80;;
59169;SDS011;52474;52.236;5.114;2023-07-31T08:52:17;4.28;;;2.70;;
59169;SDS011;52474;52.236;5.114;2023-07-31T08:54:43;5.03;;;2.85;;
59169;SDS011;52474;52.236;5.114;2023-07-31T08:57:08;4.65;;;2.42;;
59169;SDS011;52474;52.236;5.114;2023-07-31T08:59:36;3.42;;;2.40;;
59169;SDS011;52474;52.236;5.114;2023-07-31T09:02:05;4.25;;;2.88;;
59169;SDS011;52474;52.236;5.114;2023-07-31T09:07:02;2.65;;;2.15;;
59169;SDS011;52474;52.236;5.114;2023-07-31T09:09:30;3.97;;;2.65;;
59169;SDS011;52474;52.236;5.114;2023-07-31T09:11:57;2.88;;;2.35;;
59169;SDS011;52474;52.236;5.114;2023-07-31T09:14:24;2.05;;;1.90;;
59169;SDS011;52474;52.236;5.114;2023-07-31T09:16:57;3.95;;;2.63;;
59169;SDS011;52474;52.236;5.114;2023-07-31T09:19:25;3.17;;;2.78;;
59169;SDS011;52474;52.236;5.114;2023-07-31T09:21:52;3.47;;;2.55;;
59169;SDS011;52474;52.236;5.114;2023-07-31T09:24:28;2.75;;;2.30;;
59169;SDS011;52474;52.236;5.114;2023-07-31T09:26:55;2.92;;;2.25;;
59169;SDS011;52474;52.236;5.114;2023-07-31T09:29:22;3.35;;;2.30;;
59169;SDS011;52474;52.236;5.114;2023-07-31T09:31:48;5.65;;;2.42;;
59169;SDS011;52474;52.236;5.114;2023-07-31T09:34:14;2.65;;;2.28;;
59169;SDS011;52474;52.236;5.114;2023-07-31T09:36:40;4.15;;;2.60;;
59169;SDS011;52474;52.236;5.114;2023-07-31T09:39:08;4.40;;;3.00;;
59169;SDS011;52474;52.236;5.114;2023-07-31T09:41:39;3.17;;;2.78;;
59169;SDS011;52474;52.236;5.114;2023-07-31T09:44:06;4.03;;;2.63;;
59169;SDS011;52474;52.236;5.114;2023-07-31T09:46:34;3.25;;;2.78;;
59169;SDS011;52474;52.236;5.114;2023-07-31T09:51:35;3.00;;;2.30;;
59169;SDS011;52474;52.236;5.114;2023-07-31T09:54:13;5.95;;;2.88;;
59169;SDS011;52474;52.236;5.114;2023-07-31T09:56:44;8.13;;;3.20;;
59169;SDS011;52474;52.236;5.114;2023-07-31T09:59:12;9.15;;;4.00;;
59169;SDS011;52474;52.236;5.114;2023-07-31T10:01:41;8.02;;;3.83;;
59169;SDS011;52474;52.236;5.114;2023-07-31T10:04:08;7.32;;;4.05;;
59169;SDS011;52474;52.236;5.114;2023-07-31T10:09:08;12.05;;;4.22;;
59169;SDS011;52474;52.236;5.114;2023-07-31T10:11:37;12.45;;;4.57;;
59169;SDS011;52474;52.236;5.114;2023-07-31T10:14:07;13.95;;;5.03;;
59169;SDS011;52474;52.236;5.114;2023-07-31T10:16:33;16.70;;;4.65;;
59169;SDS011;52474;52.236;5.114;2023-07-31T10:19:00;14.57;;;4.93;;
59169;SDS011;52474;52.236;5.114;2023-07-31T10:21:27;13.68;;;4.40;;
59169;SDS011;52474;52.236;5.114;2023-07-31T10:23:54;19.60;;;5.32;;
59169;SDS011;52474;52.236;5.114;2023-07-31T10:26:20;9.07;;;4.45;;
59169;SDS011;52474;52.236;5.114;2023-07-31T10:28:49;10.13;;;4.50;;
59169;SDS011;52474;52.236;5.114;2023-07-31T10:31:17;9.65;;;5.38;;
59169;SDS011;52474;52.236;5.114;2023-07-31T10:33:44;15.57;;;5.35;;
59169;SDS011;52474;52.236;5.114;2023-07-31T10:36:14;11.27;;;5.25;;
59169;SDS011;52474;52.236;5.114;2023-07-31T10:38:43;8.65;;;4.80;;
59169;SDS011;52474;52.236;5.114;2023-07-31T10:41:09;11.25;;;5.15;;
59169;SDS011;52474;52.236;5.114;2023-07-31T10:43:36;5.72;;;3.80;;
59169;SDS011;52474;52.236;5.114;2023-07-31T10:46:09;6.50;;;3.70;;
59169;SDS011;52474;52.236;5.114;2023-07-31T10:48:37;9.82;;;4.03;;
59169;SDS011;52474;52.236;5.114;2023-07-31T10:51:08;8.27;;;3.45;;
59169;SDS011;52474;52.236;5.114;2023-07-31T10:53:35;7.88;;;3.58;;
59169;SDS011;52474;52.236;5.114;2023-07-31T10:56:03;8.75;;;4.10;;
59169;SDS011;52474;52.236;5.114;2023-07-31T10:58:30;9.35;;;3.83;;
59169;SDS011;52474;52.236;5.114;2023-07-31T11:01:00;8.70;;;3.97;;
59169;SDS011;52474;52.236;5.114;2023-07-31T11:03:41;8.88;;;3.92;;
59169;SDS011;52474;52.236;5.114;2023-07-31T11:06:08;13.10;;;4.47;;
59169;SDS011;52474;52.236;5.114;2023-07-31T11:08:35;9.25;;;4.35;;
59169;SDS011;52474;52.236;5.114;2023-07-31T11:11:07;12.70;;;5.07;;
59169;SDS011;52474;52.236;5.114;2023-07-31T11:16:21;12.48;;;4.95;;
59169;SDS011;52474;52.236;5.114;2023-07-31T11:18:48;8.57;;;4.47;;
59169;SDS011;52474;52.236;5.114;2023-07-31T11:21:15;12.13;;;4.90;;
59169;SDS011;52474;52.236;5.114;2023-07-31T11:23:46;17.48;;;5.57;;
59169;SDS011;52474;52.236;5.114;2023-07-31T11:26:16;17.05;;;5.10;;
59169;SDS011;52474;52.236;5.114;2023-07-31T11:28:43;14.27;;;4.90;;
59169;SDS011;52474;52.236;5.114;2023-07-31T11:31:09;15.35;;;5.72;;
59169;SDS011;52474;52.236;5.114;2023-07-31T11:33:36;16.40;;;5.45;;
59169;SDS011;52474;52.236;5.114;2023-07-31T11:36:02;14.05;;;5.30;;
59169;SDS011;52474;52.236;5.114;2023-07-31T11:38:28;20.83;;;5.97;;
59169;SDS011;52474;52.236;5.114;2023-07-31T11:41:05;12.65;;;4.80;;
59169;SDS011;52474;52.236;5.114;2023-07-31T11:43:30;13.07;;;4.05;;
59169;SDS011;52474;52.236;5.114;2023-07-31T11:45:57;12.77;;;4.43;;
59169;SDS011;52474;52.236;5.114;2023-07-31T11:50:53;17.55;;;4.85;;
59169;SDS011;52474;52.236;5.114;2023-07-31T11:53:29;9.15;;;3.97;;
59169;SDS011;52474;52.236;5.114;2023-07-31T11:55:59;14.23;;;4.37;;
59169;SDS011;52474;52.236;5.114;2023-07-31T11:58:26;12.68;;;4.28;;
59169;SDS011;52474;52.236;5.114;2023-07-31T12:00:53;16.75;;;5.15;;
59169;SDS011;52474;52.236;5.114;2023-07-31T12:03:19;15.50;;;4.85;;
59169;SDS011;52474;52.236;5.114;2023-07-31T12:05:47;14.50;;;4.55;;
59169;SDS011;52474;52.236;5.114;2023-07-31T12:08:13;14.52;;;3.70;;
59169;SDS011;52474;52.236;5.114;2023-07-31T12:10:39;13.88;;;3.72;;
59169;SDS011;52474;52.236;5.114;2023-07-31T12:13:07;16.20;;;4.28;;
59169;SDS011;52474;52.236;5.114;2023-07-31T12:15:42;16.15;;;3.63;;
59169;SDS011;52474;52.236;5.114;2023-07-31T12:18:21;14.75;;;3.88;;
59169;SDS011;52474;52.236;5.114;2023-07-31T12:20:48;16.02;;;4.50;;
59169;SDS011;52474;52.236;5.114;2023-07-31T12:23:25;12.15;;;4.72;;
59169;SDS011;52474;52.236;5.114;2023-07-31T12:28:40;12.48;;;3.50;;
59169;SDS011;52474;52.236;5.114;2023-07-31T12:31:08;9.70;;;3.80;;
59169;SDS011;52474;52.236;5.114;2023-07-31T12:33:37;10.00;;;3.40;;
59169;SDS011;52474;52.236;5.114;2023-07-31T12:36:07;11.63;;;3.65;;
59169;SDS011;52474;52.236;5.114;2023-07-31T12:38:37;11.68;;;4.15;;
59169;SDS011;52474;52.236;5.114;2023-07-31T12:41:03;12.32;;;3.90;;
59169;SDS011;52474;52.236;5.114;2023-07-31T12:43:29;12.88;;;3.83;;
59169;SDS011;52474;52.236;5.114;2023-07-31T12:45:55;8.65;;;3.83;;
59169;SDS011;52474;52.236;5.114;2023-07-31T12:48:21;7.65;;;3.72;;
59169;SDS011;52474;52.236;5.114;2023-07-31T12:50:47;12.32;;;3.92;;
59169;SDS011;52474;52.236;5.114;2023-07-31T12:53:14;9.75;;;3.25;;
59169;SDS011;52474;52.236;5.114;2023-07-31T12:55:40;10.60;;;3.70;;
59169;SDS011;52474;52.236;5.114;2023-07-31T12:58:06;9.30;;;3.70;;
59169;SDS011;52474;52.236;5.114;2023-07-31T13:00:39;8.65;;;4.00;;
59169;SDS011;52474;52.236;5.114;2023-07-31T13:03:46;8.38;;;3.95;;
59169;SDS011;52474;52.236;5.114;2023-07-31T13:07:52;7.65;;;3.35;;
59169;SDS011;52474;52.236;5.114;2023-07-31T13:10:19;10.90;;;4.10;;
59169;SDS011;52474;52.236;5.114;2023-07-31T13:12:52;9.90;;;3.08;;
59169;SDS011;52474;52.236;5.114;2023-07-31T13:16:50;9.25;;;3.15;;
59169;SDS011;52474;52.236;5.114;2023-07-31T13:19:17;7.80;;;3.25;;
59169;SDS011;52474;52.236;5.114;2023-07-31T13:21:44;10.10;;;3.20;;
59169;SDS011;52474;52.236;5.114;2023-07-31T13:24:49;9.43;;;3.17;;
59169;SDS011;52474;52.236;5.114;2023-07-31T13:27:29;6.25;;;3.30;;
59169;SDS011;52474;52.236;5.114;2023-07-31T13:30:40;8.77;;;4.00;;
59169;SDS011;52474;52.236;5.114;2023-07-31T13:34:01;9.18;;;3.83;;
59169;SDS011;52474;52.236;5.114;2023-07-31T13:37:50;10.95;;;3.38;;
59169;SDS011;52474;52.236;5.114;2023-07-31T13:45:23;12.27;;;3.88;;
59169;SDS011;52474;52.236;5.114;2023-07-31T13:47:49;12.10;;;3.40;;
59169;SDS011;52474;52.236;5.114;2023-07-31T13:50:18;4.03;;;2.37;;
59169;SDS011;52474;52.236;5.114;2023-07-31T13:52:46;6.18;;;2.22;;
59169;SDS011;52474;52.236;5.114;2023-07-31T13:55:12;4.53;;;2.40;;
59169;SDS011;52474;52.236;5.114;2023-07-31T13:57:37;7.00;;;2.80;;
59169;SDS011;52474;52.236;5.114;2023-07-31T14:00:03;6.95;;;2.90;;
59169;SDS011;52474;52.236;5.114;2023-07-31T14:02:30;4.18;;;2.70;;
59169;SDS011;52474;52.236;5.114;2023-07-31T14:04:56;4.70;;;3.22;;
59169;SDS011;52474;52.236;5.114;2023-07-31T14:07:21;7.45;;;2.58;;
59169;SDS011;52474;52.236;5.114;2023-07-31T14:09:47;4.50;;;3.03;;
59169;SDS011;52474;52.236;5.114;2023-07-31T14:12:13;3.47;;;2.53;;
59169;SDS011;52474;52.236;5.114;2023-07-31T14:14:38;4.20;;;2.70;;
59169;SDS011;52474;52.236;5.114;2023-07-31T14:17:04;4.05;;;2.70;;
59169;SDS011;52474;52.236;5.114;2023-07-31T14:19:30;5.65;;;2.88;;
59169;SDS011;52474;52.236;5.114;2023-07-31T14:22:00;6.25;;;2.90;;
59169;SDS011;52474;52.236;5.114;2023-07-31T14:24:25;4.68;;;2.80;;
59169;SDS011;52474;52.236;5.114;2023-07-31T14:26:51;5.15;;;2.42;;
59169;SDS011;52474;52.236;5.114;2023-07-31T14:29:17;4.10;;;2.30;;
59169;SDS011;52474;52.236;5.114;2023-07-31T14:31:42;3.55;;;2.05;;
59169;SDS011;52474;52.236;5.114;2023-07-31T14:34:08;3.88;;;1.98;;
59169;SDS011;52474;52.236;5.114;2023-07-31T14:36:34;2.03;;;1.30;;
59169;SDS011;52474;52.236;5.114;2023-07-31T14:38:59;1.85;;;1.40;;
59169;SDS011;52474;52.236;5.114;2023-07-31T14:41:25;2.58;;;1.90;;
59169;SDS011;52474;52.236;5.114;2023-07-31T14:43:54;2.25;;;1.25;;
59169;SDS011;52474;52.236;5.114;2023-07-31T14:46:30;2.70;;;1.40;;
59169;SDS011;52474;52.236;5.114;2023-07-31T14:48:55;3.10;;;1.25;;
59169;SDS011;52474;52.236;5.114;2023-07-31T14:51:23;1.95;;;1.33;;
59169;SDS011;52474;52.236;5.114;2023-07-31T14:53:48;2.55;;;1.40;;
59169;SDS011;52474;52.236;5.114;2023-07-31T14:56:14;1.73;;;1.30;;
59169;SDS011;52474;52.236;5.114;2023-07-31T14:58:40;4.90;;;1.50;;
59169;SDS011;52474;52.236;5.114;2023-07-31T15:01:06;1.50;;;1.15;;
59169;SDS011;52474;52.236;5.114;2023-07-31T15:03:31;1.75;;;1.10;;
59169;SDS011;52474;52.236;5.114;2023-07-31T15:05:57;1.95;;;1.20;;
59169;SDS011;52474;52.236;5.114;2023-07-31T15:08:22;4.18;;;1.20;;
59169;SDS011;52474;52.236;5.114;2023-07-31T15:10:48;4.53;;;1.23;;